Detall de PIREP

Printer-friendly versionPDF version

[2013/07/16 15:23:00]
Flight IATA:CT3404
Pilot Number:012
Company ICAO:CAT
Aircraft Type:B753/E
PAX:243
Departing Airport: LEBL
Destination Airport: GCLP
Alternate Airport:GCXO
Online: VATSIM
Route:LOTOS UM985 YES UM985 MGA/M082F350 UN869 RUSIK
Flight Level:F350
No Slew and time accel
No pause
Crash detect
Detect pilot in Cockpit between each 30 and 45 minutes
15:23 Zero fuel Weight: 196968 Lbs, Fuel Weight: 32621 Lbs
15:23 VATSIM:LEBL 161500Z 21013KT 9999 FEW030 29/21 Q1018 NOSIG
15:23 VATSIM:GCLP 161500Z 03026KT 9999 FEW020 27/18 Q1017 NOSIG
15:23 VOICE CATALONIAN
15:28 Parking Brakes off
15:38 Take-off
15:38 Take off Weight: 228041 Lbs
15:38 Wind: 210º @ 013 Knots Heading: 242º
15:38 POS N41º 17´ 06´´ E002º 04´ 58´´
15:38 Gear Up: 199 Knots
15:38 Flaps:2 at 199 Knots
15:38 Flaps:1 at 210 Knots
15:39 Flaps:0 at 222 Knots
15:53 Wind:273º@024 Knots Heading: 228º Ground Speed: 458 Knots Altitude 33159 ft
16:08 Wind:268º@038 Knots Heading: 235º Ground Speed: 446 Knots Altitude 33172 ft
16:17 TOC
16:17 Fuel Weight: 23098 Lb
16:23 Wind:261º@040 Knots Heading: 228º Ground Speed: 448 Knots Altitude 35144 ft
16:38 Wind:261º@042 Knots Heading: 216º Ground Speed: 445 Knots Altitude 35144 ft
16:53 Wind:249º@042 Knots Heading: 219º Ground Speed: 440 Knots Altitude 35118 ft
17:08 Wind:248º@040 Knots Heading: 216º Ground Speed: 441 Knots Altitude 35104 ft
17:23 Wind:249º@035 Knots Heading: 212º Ground Speed: 461 Knots Altitude 35082 ft
17:38 Wind:252º@023 Knots Heading: 246º Ground Speed: 452 Knots Altitude 34967 ft
17:53 Wind:259º@012 Knots Heading: 244º Ground Speed: 461 Knots Altitude 35036 ft
18:06 TOD
18:06 Fuel Weight: 8642 Lb
18:08 Wind:290º@016 Knots Heading: 244º Ground Speed: 456 Knots Altitude 30459 ft
18:23 Wind:001º@004 Knots Heading: 227º Ground Speed: 273 Knots Altitude 7693 ft
18:26 Flaps:1 at 229 Knots
18:32 Flaps:2 at 201 Knots
18:32 Flaps:3 at 197 Knots
18:32 Flaps:4 at 172 Knots
18:33 Gear Down: 169 Knots
18:34 Flaps:5 at 163 Knots
18:35 Flaps:6 at 162 Knots
18:38 Wind:025º@025 Knots Heading: 020º Ground Speed: 132 Knots Altitude 866 ft
18:39 TouchDown:Rate -209 ft/min Speed: 142 Knots
18:39 VATSIM:GCLP 161830Z 02022KT 9999 FEW020 25/18 Q1017 NOSIG
18:39 Land
18:39 Wind:025º@024 Knots
18:39 Heading: 016º
18:39 Flight Duration: 03:01
18:39 Landing Weight: 202597 Lbs
18:39 POS N27º 56´ 10´´ W015º 23´ 04´´
18:40 Parking brakes on
18:40 Block to Block Duration: 03:12
18:40 Final Fuel: 5542 Lbls
18:40 Spent Fuel: 27078 Lbls
18:40 Flight Length: 1248 NM
18:40 TOD Land Length: 155 NM

Exportar CSV

Powered by Drupal - Modified by Danger4k